<?xml version="1.0" encoding="utf-8"?>
<gpx version="1.1" creator="Trailforks.com; modified by GPX Track Cleaner from GPX Viewer plugin (WordPress) " xmlns="http://www.topografix.com/GPX/1/1" xmlns:xsi="http://www.w3.org/2001/XMLSchema-instance" xsi:schemaLocation="http://www.topografix.com/GPX/1/1 http://www.topografix.com/GPX/1/1/gpx.xsd">

	<trk>
		<name>
01%20King%20Cobra
</name>
		<cmt> distance: 13.2 km, up: 0 m, down: 0 m</cmt>
		<desc>1 track segments, original data of track points</desc>
		<trkseg>
			<trkpt lat="42.99927" lon="-1.51811">
				<time>2025-08-19T13:14:14.022Z</time>
			</trkpt>
			<trkpt lat="42.99945" lon="-1.51806">
				<time>2025-08-19T13:14:15.022Z</time>
			</trkpt>
			<trkpt lat="42.999610000000004" lon="-1.51795">
				<time>2025-08-19T13:14:16.022Z</time>
			</trkpt>
			<trkpt lat="42.999750000000006" lon="-1.51783">
				<time>2025-08-19T13:14:17.022Z</time>
			</trkpt>
			<trkpt lat="42.99982000000001" lon="-1.5178800000000001">
				<time>2025-08-19T13:14:18.022Z</time>
			</trkpt>
			<trkpt lat="42.999970000000005" lon="-1.51808">
				<time>2025-08-19T13:14:19.022Z</time>
			</trkpt>
			<trkpt lat="43.00047000000001" lon="-1.51847">
				<time>2025-08-19T13:14:20.022Z</time>
			</trkpt>
			<trkpt lat="43.00076000000001" lon="-1.51873">
				<time>2025-08-19T13:14:21.022Z</time>
			</trkpt>
			<trkpt lat="43.00070000000001" lon="-1.51853">
				<time>2025-08-19T13:14:22.022Z</time>
			</trkpt>
			<trkpt lat="43.00046000000001" lon="-1.5179099999999999">
				<time>2025-08-19T13:14:23.022Z</time>
			</trkpt>
			<trkpt lat="43.00069000000001" lon="-1.5178699999999998">
				<time>2025-08-19T13:14:24.022Z</time>
			</trkpt>
			<trkpt lat="43.000880000000016" lon="-1.5180399999999998">
				<time>2025-08-19T13:14:25.022Z</time>
			</trkpt>
			<trkpt lat="43.00104000000002" lon="-1.5181499999999999">
				<time>2025-08-19T13:14:26.022Z</time>
			</trkpt>
			<trkpt lat="43.00114000000002" lon="-1.51819">
				<time>2025-08-19T13:14:27.022Z</time>
			</trkpt>
			<trkpt lat="43.00126000000002" lon="-1.5184799999999998">
				<time>2025-08-19T13:14:28.022Z</time>
			</trkpt>
			<trkpt lat="43.00136000000003" lon="-1.5188499999999998">
				<time>2025-08-19T13:14:29.022Z</time>
			</trkpt>
			<trkpt lat="43.001400000000025" lon="-1.5191499999999998">
				<time>2025-08-19T13:14:30.022Z</time>
			</trkpt>
			<trkpt lat="43.00145000000003" lon="-1.5193699999999999">
				<time>2025-08-19T13:14:31.022Z</time>
			</trkpt>
			<trkpt lat="43.00145000000003" lon="-1.51961">
				<time>2025-08-19T13:14:32.022Z</time>
			</trkpt>
			<trkpt lat="43.001470000000026" lon="-1.51961">
				<time>2025-08-19T13:14:33.022Z</time>
			</trkpt>
			<trkpt lat="43.00155000000002" lon="-1.51952">
				<time>2025-08-19T13:14:34.022Z</time>
			</trkpt>
			<trkpt lat="43.001530000000024" lon="-1.5198099999999999">
				<time>2025-08-19T13:14:35.022Z</time>
			</trkpt>
			<trkpt lat="43.00159000000002" lon="-1.51975">
				<time>2025-08-19T13:14:36.022Z</time>
			</trkpt>
			<trkpt lat="43.00161000000002" lon="-1.5199399999999998">
				<time>2025-08-19T13:14:37.022Z</time>
			</trkpt>
			<trkpt lat="43.00161000000002" lon="-1.5203699999999998">
				<time>2025-08-19T13:14:38.022Z</time>
			</trkpt>
			<trkpt lat="43.00151000000002" lon="-1.5207599999999997">
				<time>2025-08-19T13:14:39.022Z</time>
			</trkpt>
			<trkpt lat="43.001410000000014" lon="-1.5209499999999996">
				<time>2025-08-19T13:14:40.022Z</time>
			</trkpt>
			<trkpt lat="43.00100000000001" lon="-1.5212999999999997">
				<time>2025-08-19T13:14:41.022Z</time>
			</trkpt>
			<trkpt lat="43.00100000000001" lon="-1.5213399999999997">
				<time>2025-08-19T13:14:42.022Z</time>
			</trkpt>
			<trkpt lat="43.00125000000001" lon="-1.5213699999999997">
				<time>2025-08-19T13:14:43.022Z</time>
			</trkpt>
			<trkpt lat="43.001210000000015" lon="-1.5214299999999996">
				<time>2025-08-19T13:14:44.022Z</time>
			</trkpt>
			<trkpt lat="43.00093000000002" lon="-1.5215999999999996">
				<time>2025-08-19T13:14:45.022Z</time>
			</trkpt>
			<trkpt lat="43.00116000000002" lon="-1.5216299999999996">
				<time>2025-08-19T13:14:46.022Z</time>
			</trkpt>
			<trkpt lat="43.00101000000002" lon="-1.5217499999999995">
				<time>2025-08-19T13:14:47.022Z</time>
			</trkpt>
			<trkpt lat="43.00087000000002" lon="-1.5218999999999996">
				<time>2025-08-19T13:14:48.022Z</time>
			</trkpt>
			<trkpt lat="43.00091000000002" lon="-1.5219199999999995">
				<time>2025-08-19T13:14:49.022Z</time>
			</trkpt>
			<trkpt lat="43.00103000000002" lon="-1.5218799999999995">
				<time>2025-08-19T13:14:50.022Z</time>
			</trkpt>
			<trkpt lat="43.00120000000002" lon="-1.5219199999999995">
				<time>2025-08-19T13:14:51.022Z</time>
			</trkpt>
			<trkpt lat="43.001280000000015" lon="-1.5219699999999996">
				<time>2025-08-19T13:14:52.022Z</time>
			</trkpt>
			<trkpt lat="43.00136000000001" lon="-1.5220499999999997">
				<time>2025-08-19T13:14:53.022Z</time>
			</trkpt>
			<trkpt lat="43.00147000000001" lon="-1.5222899999999997">
				<time>2025-08-19T13:14:54.022Z</time>
			</trkpt>
			<trkpt lat="43.00149000000001" lon="-1.5224599999999997">
				<time>2025-08-19T13:14:55.022Z</time>
			</trkpt>
			<trkpt lat="43.00153000000001" lon="-1.5225599999999997">
				<time>2025-08-19T13:14:56.022Z</time>
			</trkpt>
			<trkpt lat="43.00157000000001" lon="-1.5227399999999998">
				<time>2025-08-19T13:14:57.022Z</time>
			</trkpt>
			<trkpt lat="43.00178000000001" lon="-1.5231799999999998">
				<time>2025-08-19T13:14:58.022Z</time>
			</trkpt>
			<trkpt lat="43.00180000000001" lon="-1.5233099999999997">
				<time>2025-08-19T13:14:59.022Z</time>
			</trkpt>
			<trkpt lat="43.00184000000001" lon="-1.5233899999999998">
				<time>2025-08-19T13:15:00.022Z</time>
			</trkpt>
			<trkpt lat="43.00185000000001" lon="-1.5235099999999997">
				<time>2025-08-19T13:15:01.022Z</time>
			</trkpt>
			<trkpt lat="43.001880000000014" lon="-1.5235499999999997">
				<time>2025-08-19T13:15:02.022Z</time>
			</trkpt>
			<trkpt lat="43.00190000000001" lon="-1.5236699999999996">
				<time>2025-08-19T13:15:03.022Z</time>
			</trkpt>
			<trkpt lat="43.001880000000014" lon="-1.5237399999999997">
				<time>2025-08-19T13:15:04.022Z</time>
			</trkpt>
			<trkpt lat="43.00189000000002" lon="-1.5237999999999996">
				<time>2025-08-19T13:15:05.022Z</time>
			</trkpt>
			<trkpt lat="43.00191000000002" lon="-1.5238199999999995">
				<time>2025-08-19T13:15:06.022Z</time>
			</trkpt>
			<trkpt lat="43.00189000000002" lon="-1.5240999999999996">
				<time>2025-08-19T13:15:07.022Z</time>
			</trkpt>
			<trkpt lat="43.00190000000002" lon="-1.5242199999999995">
				<time>2025-08-19T13:15:08.022Z</time>
			</trkpt>
			<trkpt lat="43.00188000000002" lon="-1.5248699999999995">
				<time>2025-08-19T13:15:09.022Z</time>
			</trkpt>
			<trkpt lat="43.00192000000002" lon="-1.5253399999999995">
				<time>2025-08-19T13:15:10.022Z</time>
			</trkpt>
			<trkpt lat="43.00190000000002" lon="-1.5254299999999994">
				<time>2025-08-19T13:15:11.022Z</time>
			</trkpt>
			<trkpt lat="43.00184000000002" lon="-1.5254999999999994">
				<time>2025-08-19T13:15:12.022Z</time>
			</trkpt>
			<trkpt lat="43.001760000000026" lon="-1.5254199999999993">
				<time>2025-08-19T13:15:13.022Z</time>
			</trkpt>
			<trkpt lat="43.00177000000003" lon="-1.5253699999999992">
				<time>2025-08-19T13:15:14.022Z</time>
			</trkpt>
			<trkpt lat="43.00175000000003" lon="-1.5253199999999991">
				<time>2025-08-19T13:15:15.022Z</time>
			</trkpt>
			<trkpt lat="43.00173000000003" lon="-1.5253299999999992">
				<time>2025-08-19T13:15:16.022Z</time>
			</trkpt>
			<trkpt lat="43.00169000000003" lon="-1.525419999999999">
				<time>2025-08-19T13:15:17.022Z</time>
			</trkpt>
			<trkpt lat="43.00169000000003" lon="-1.525519999999999">
				<time>2025-08-19T13:15:18.022Z</time>
			</trkpt>
			<trkpt lat="43.001740000000034" lon="-1.525649999999999">
				<time>2025-08-19T13:15:19.022Z</time>
			</trkpt>
			<trkpt lat="43.00176000000003" lon="-1.525779999999999">
				<time>2025-08-19T13:15:20.022Z</time>
			</trkpt>
			<trkpt lat="43.001740000000034" lon="-1.5259299999999991">
				<time>2025-08-19T13:15:21.022Z</time>
			</trkpt>
			<trkpt lat="43.001770000000036" lon="-1.5260399999999992">
				<time>2025-08-19T13:15:22.022Z</time>
			</trkpt>
			<trkpt lat="43.00176000000003" lon="-1.5261999999999991">
				<time>2025-08-19T13:15:23.022Z</time>
			</trkpt>
			<trkpt lat="43.00184000000003" lon="-1.526589999999999">
				<time>2025-08-19T13:15:24.022Z</time>
			</trkpt>
			<trkpt lat="43.00200000000003" lon="-1.527089999999999">
				<time>2025-08-19T13:15:25.022Z</time>
			</trkpt>
			<trkpt lat="43.002010000000034" lon="-1.527219999999999">
				<time>2025-08-19T13:15:26.022Z</time>
			</trkpt>
			<trkpt lat="43.00198000000003" lon="-1.527359999999999">
				<time>2025-08-19T13:15:27.022Z</time>
			</trkpt>
			<trkpt lat="43.00205000000003" lon="-1.527529999999999">
				<time>2025-08-19T13:15:28.022Z</time>
			</trkpt>
			<trkpt lat="43.002060000000036" lon="-1.5279899999999988">
				<time>2025-08-19T13:15:29.022Z</time>
			</trkpt>
			<trkpt lat="43.002010000000034" lon="-1.5277799999999988">
				<time>2025-08-19T13:15:30.022Z</time>
			</trkpt>
			<trkpt lat="43.00198000000003" lon="-1.5279599999999989">
				<time>2025-08-19T13:15:31.022Z</time>
			</trkpt>
			<trkpt lat="43.00205000000003" lon="-1.5283299999999989">
				<time>2025-08-19T13:15:32.022Z</time>
			</trkpt>
			<trkpt lat="43.001990000000035" lon="-1.5284299999999988">
				<time>2025-08-19T13:15:33.022Z</time>
			</trkpt>
			<trkpt lat="43.00191000000004" lon="-1.5282499999999988">
				<time>2025-08-19T13:15:34.022Z</time>
			</trkpt>
			<trkpt lat="43.001790000000035" lon="-1.5278399999999988">
				<time>2025-08-19T13:15:35.022Z</time>
			</trkpt>
			<trkpt lat="43.001790000000035" lon="-1.5276899999999987">
				<time>2025-08-19T13:15:36.022Z</time>
			</trkpt>
			<trkpt lat="43.001770000000036" lon="-1.5276199999999986">
				<time>2025-08-19T13:15:37.022Z</time>
			</trkpt>
			<trkpt lat="43.00176000000003" lon="-1.5277399999999985">
				<time>2025-08-19T13:15:38.022Z</time>
			</trkpt>
			<trkpt lat="43.001700000000035" lon="-1.5278699999999985">
				<time>2025-08-19T13:15:39.022Z</time>
			</trkpt>
			<trkpt lat="43.00169000000003" lon="-1.5279699999999985">
				<time>2025-08-19T13:15:40.022Z</time>
			</trkpt>
			<trkpt lat="43.00166000000003" lon="-1.5280399999999985">
				<time>2025-08-19T13:15:41.022Z</time>
			</trkpt>
			<trkpt lat="43.00169000000003" lon="-1.5283499999999985">
				<time>2025-08-19T13:15:42.022Z</time>
			</trkpt>
			<trkpt lat="43.00164000000003" lon="-1.5282399999999985">
				<time>2025-08-19T13:15:43.022Z</time>
			</trkpt>
			<trkpt lat="43.00160000000003" lon="-1.5283399999999985">
				<time>2025-08-19T13:15:44.022Z</time>
			</trkpt>
			<trkpt lat="43.00164000000003" lon="-1.5284699999999984">
				<time>2025-08-19T13:15:45.022Z</time>
			</trkpt>
			<trkpt lat="43.00162000000003" lon="-1.5285099999999985">
				<time>2025-08-19T13:15:46.022Z</time>
			</trkpt>
			<trkpt lat="43.00147000000003" lon="-1.5283199999999986">
				<time>2025-08-19T13:15:47.022Z</time>
			</trkpt>
			<trkpt lat="43.00140000000003" lon="-1.5281699999999985">
				<time>2025-08-19T13:15:48.022Z</time>
			</trkpt>
			<trkpt lat="43.001340000000035" lon="-1.5281399999999985">
				<time>2025-08-19T13:15:49.022Z</time>
			</trkpt>
			<trkpt lat="43.001320000000035" lon="-1.5280199999999986">
				<time>2025-08-19T13:15:50.022Z</time>
			</trkpt>
			<trkpt lat="43.00126000000004" lon="-1.5278799999999986">
				<time>2025-08-19T13:15:51.022Z</time>
			</trkpt>
			<trkpt lat="43.00124000000004" lon="-1.5277499999999986">
				<time>2025-08-19T13:15:52.022Z</time>
			</trkpt>
			<trkpt lat="43.00118000000004" lon="-1.5276199999999986">
				<time>2025-08-19T13:15:53.022Z</time>
			</trkpt>
			<trkpt lat="43.00109000000004" lon="-1.5274899999999987">
				<time>2025-08-19T13:15:54.022Z</time>
			</trkpt>
			<trkpt lat="43.00102000000004" lon="-1.5274399999999986">
				<time>2025-08-19T13:15:55.022Z</time>
			</trkpt>
			<trkpt lat="43.00103000000004" lon="-1.5276999999999985">
				<time>2025-08-19T13:15:56.022Z</time>
			</trkpt>
			<trkpt lat="43.001080000000044" lon="-1.5278499999999986">
				<time>2025-08-19T13:15:57.022Z</time>
			</trkpt>
			<trkpt lat="43.00109000000005" lon="-1.5280099999999985">
				<time>2025-08-19T13:15:58.022Z</time>
			</trkpt>
			<trkpt lat="43.00116000000005" lon="-1.5283299999999986">
				<time>2025-08-19T13:15:59.022Z</time>
			</trkpt>
			<trkpt lat="43.00118000000005" lon="-1.5283499999999985">
				<time>2025-08-19T13:16:00.022Z</time>
			</trkpt>
			<trkpt lat="43.00119000000005" lon="-1.5284199999999986">
				<time>2025-08-19T13:16:01.022Z</time>
			</trkpt>
			<trkpt lat="43.00124000000005" lon="-1.5285299999999986">
				<time>2025-08-19T13:16:02.022Z</time>
			</trkpt>
			<trkpt lat="43.00121000000005" lon="-1.5286399999999987">
				<time>2025-08-19T13:16:03.022Z</time>
			</trkpt>
			<trkpt lat="43.00116000000005" lon="-1.5286599999999986">
				<time>2025-08-19T13:16:04.022Z</time>
			</trkpt>
			<trkpt lat="43.00112000000005" lon="-1.5285999999999986">
				<time>2025-08-19T13:16:05.022Z</time>
			</trkpt>
			<trkpt lat="43.00096000000005" lon="-1.5281699999999987">
				<time>2025-08-19T13:16:06.022Z</time>
			</trkpt>
			<trkpt lat="43.00093000000005" lon="-1.5282499999999988">
				<time>2025-08-19T13:16:07.022Z</time>
			</trkpt>
			<trkpt lat="43.00092000000004" lon="-1.5283999999999989">
				<time>2025-08-19T13:16:08.022Z</time>
			</trkpt>
			<trkpt lat="43.00089000000004" lon="-1.528449999999999">
				<time>2025-08-19T13:16:09.022Z</time>
			</trkpt>
			<trkpt lat="43.00076000000004" lon="-1.528089999999999">
				<time>2025-08-19T13:16:10.022Z</time>
			</trkpt>
			<trkpt lat="43.000520000000044" lon="-1.5275899999999991">
				<time>2025-08-19T13:16:11.022Z</time>
			</trkpt>
			<trkpt lat="43.00046000000005" lon="-1.5273299999999992">
				<time>2025-08-19T13:16:12.022Z</time>
			</trkpt>
			<trkpt lat="43.00040000000005" lon="-1.5272099999999993">
				<time>2025-08-19T13:16:13.022Z</time>
			</trkpt>
			<trkpt lat="43.00040000000005" lon="-1.5270199999999994">
				<time>2025-08-19T13:16:14.022Z</time>
			</trkpt>
			<trkpt lat="43.000370000000046" lon="-1.5267699999999993">
				<time>2025-08-19T13:16:15.022Z</time>
			</trkpt>
			<trkpt lat="43.00022000000005" lon="-1.5263699999999993">
				<time>2025-08-19T13:16:16.022Z</time>
			</trkpt>
			<trkpt lat="43.000210000000045" lon="-1.5262099999999994">
				<time>2025-08-19T13:16:17.022Z</time>
			</trkpt>
			<trkpt lat="43.000160000000044" lon="-1.5260199999999995">
				<time>2025-08-19T13:16:18.022Z</time>
			</trkpt>
			<trkpt lat="43.000160000000044" lon="-1.5258699999999994">
				<time>2025-08-19T13:16:19.022Z</time>
			</trkpt>
			<trkpt lat="43.00011000000004" lon="-1.5257199999999993">
				<time>2025-08-19T13:16:20.022Z</time>
			</trkpt>
			<trkpt lat="43.000050000000044" lon="-1.5255999999999994">
				<time>2025-08-19T13:16:21.022Z</time>
			</trkpt>
			<trkpt lat="43.00002000000004" lon="-1.5256599999999993">
				<time>2025-08-19T13:16:22.022Z</time>
			</trkpt>
			<trkpt lat="42.99997000000004" lon="-1.5260199999999993">
				<time>2025-08-19T13:16:23.022Z</time>
			</trkpt>
			<trkpt lat="42.99998000000004" lon="-1.5260999999999993">
				<time>2025-08-19T13:16:24.022Z</time>
			</trkpt>
			<trkpt lat="42.99997000000004" lon="-1.5261699999999994">
				<time>2025-08-19T13:16:25.022Z</time>
			</trkpt>
			<trkpt lat="42.99994000000004" lon="-1.5262299999999993">
				<time>2025-08-19T13:16:26.022Z</time>
			</trkpt>
			<trkpt lat="42.99983000000004" lon="-1.5260399999999994">
				<time>2025-08-19T13:16:27.022Z</time>
			</trkpt>
			<trkpt lat="42.99979000000004" lon="-1.5258699999999994">
				<time>2025-08-19T13:16:28.022Z</time>
			</trkpt>
			<trkpt lat="42.99969000000004" lon="-1.5257499999999995">
				<time>2025-08-19T13:16:29.022Z</time>
			</trkpt>
			<trkpt lat="42.99960000000004" lon="-1.5256999999999994">
				<time>2025-08-19T13:16:30.022Z</time>
			</trkpt>
			<trkpt lat="42.99954000000004" lon="-1.5256399999999994">
				<time>2025-08-19T13:16:31.022Z</time>
			</trkpt>
			<trkpt lat="42.99941000000004" lon="-1.5256299999999994">
				<time>2025-08-19T13:16:32.022Z</time>
			</trkpt>
			<trkpt lat="42.99936000000004" lon="-1.5255899999999993">
				<time>2025-08-19T13:16:33.022Z</time>
			</trkpt>
			<trkpt lat="42.99927000000004" lon="-1.5255799999999993">
				<time>2025-08-19T13:16:34.022Z</time>
			</trkpt>
			<trkpt lat="42.99925000000004" lon="-1.5256199999999993">
				<time>2025-08-19T13:16:35.022Z</time>
			</trkpt>
			<trkpt lat="42.99925000000004" lon="-1.5256699999999994">
				<time>2025-08-19T13:16:36.022Z</time>
			</trkpt>
			<trkpt lat="42.99930000000004" lon="-1.5257199999999995">
				<time>2025-08-19T13:16:37.022Z</time>
			</trkpt>
			<trkpt lat="42.99942000000004" lon="-1.5259499999999995">
				<time>2025-08-19T13:16:38.022Z</time>
			</trkpt>
			<trkpt lat="42.999470000000045" lon="-1.5260699999999994">
				<time>2025-08-19T13:16:39.022Z</time>
			</trkpt>
			<trkpt lat="42.99951000000004" lon="-1.5262299999999993">
				<time>2025-08-19T13:16:40.022Z</time>
			</trkpt>
			<trkpt lat="42.999490000000044" lon="-1.5262899999999993">
				<time>2025-08-19T13:16:41.022Z</time>
			</trkpt>
			<trkpt lat="42.99942000000004" lon="-1.5262599999999993">
				<time>2025-08-19T13:16:42.022Z</time>
			</trkpt>
			<trkpt lat="42.99941000000004" lon="-1.5263199999999992">
				<time>2025-08-19T13:16:43.022Z</time>
			</trkpt>
			<trkpt lat="42.99952000000004" lon="-1.5269099999999993">
				<time>2025-08-19T13:16:44.022Z</time>
			</trkpt>
			<trkpt lat="42.99960000000004" lon="-1.5271799999999993">
				<time>2025-08-19T13:16:45.022Z</time>
			</trkpt>
			<trkpt lat="42.99958000000004" lon="-1.5272199999999994">
				<time>2025-08-19T13:16:46.022Z</time>
			</trkpt>
			<trkpt lat="42.999570000000034" lon="-1.5274499999999993">
				<time>2025-08-19T13:16:47.022Z</time>
			</trkpt>
			<trkpt lat="42.99931000000004" lon="-1.5272099999999993">
				<time>2025-08-19T13:16:48.022Z</time>
			</trkpt>
			<trkpt lat="42.99913000000004" lon="-1.5269699999999993">
				<time>2025-08-19T13:16:49.022Z</time>
			</trkpt>
			<trkpt lat="42.99905000000004" lon="-1.5269199999999992">
				<time>2025-08-19T13:16:50.022Z</time>
			</trkpt>
			<trkpt lat="42.99920000000004" lon="-1.5272699999999992">
				<time>2025-08-19T13:16:51.022Z</time>
			</trkpt>
			<trkpt lat="42.99921000000004" lon="-1.5273299999999992">
				<time>2025-08-19T13:16:52.022Z</time>
			</trkpt>
			<trkpt lat="42.99917000000004" lon="-1.5273299999999992">
				<time>2025-08-19T13:16:53.022Z</time>
			</trkpt>
			<trkpt lat="42.99904000000004" lon="-1.5272699999999992">
				<time>2025-08-19T13:16:54.022Z</time>
			</trkpt>
			<trkpt lat="42.99877000000004" lon="-1.5270999999999992">
				<time>2025-08-19T13:16:55.022Z</time>
			</trkpt>
			<trkpt lat="42.998710000000045" lon="-1.5270899999999992">
				<time>2025-08-19T13:16:56.022Z</time>
			</trkpt>
			<trkpt lat="42.99870000000004" lon="-1.5271299999999992">
				<time>2025-08-19T13:16:57.022Z</time>
			</trkpt>
			<trkpt lat="42.99877000000004" lon="-1.5272099999999993">
				<time>2025-08-19T13:16:58.022Z</time>
			</trkpt>
			<trkpt lat="42.99895000000004" lon="-1.5275799999999993">
				<time>2025-08-19T13:16:59.022Z</time>
			</trkpt>
			<trkpt lat="42.99901000000004" lon="-1.5277599999999993">
				<time>2025-08-19T13:17:00.022Z</time>
			</trkpt>
			<trkpt lat="42.99895000000004" lon="-1.5277499999999993">
				<time>2025-08-19T13:17:01.022Z</time>
			</trkpt>
			<trkpt lat="42.998870000000046" lon="-1.5276599999999994">
				<time>2025-08-19T13:17:02.022Z</time>
			</trkpt>
			<trkpt lat="42.99854000000005" lon="-1.5274699999999994">
				<time>2025-08-19T13:17:03.022Z</time>
			</trkpt>
			<trkpt lat="42.99849000000005" lon="-1.5274999999999994">
				<time>2025-08-19T13:17:04.022Z</time>
			</trkpt>
			<trkpt lat="42.998660000000044" lon="-1.5276999999999994">
				<time>2025-08-19T13:17:05.022Z</time>
			</trkpt>
			<trkpt lat="42.99879000000004" lon="-1.5279499999999995">
				<time>2025-08-19T13:17:06.022Z</time>
			</trkpt>
			<trkpt lat="42.99877000000004" lon="-1.5279899999999995">
				<time>2025-08-19T13:17:07.022Z</time>
			</trkpt>
			<trkpt lat="42.998420000000046" lon="-1.5277999999999996">
				<time>2025-08-19T13:17:08.022Z</time>
			</trkpt>
			<trkpt lat="42.99845000000005" lon="-1.5279199999999995">
				<time>2025-08-19T13:17:09.022Z</time>
			</trkpt>
			<trkpt lat="42.998530000000045" lon="-1.5280699999999996">
				<time>2025-08-19T13:17:10.022Z</time>
			</trkpt>
			<trkpt lat="42.998400000000046" lon="-1.5280099999999996">
				<time>2025-08-19T13:17:11.022Z</time>
			</trkpt>
			<trkpt lat="42.99839000000004" lon="-1.5280699999999996">
				<time>2025-08-19T13:17:12.022Z</time>
			</trkpt>
			<trkpt lat="42.998460000000044" lon="-1.5282399999999996">
				<time>2025-08-19T13:17:13.022Z</time>
			</trkpt>
			<trkpt lat="42.998440000000045" lon="-1.5282599999999995">
				<time>2025-08-19T13:17:14.022Z</time>
			</trkpt>
			<trkpt lat="42.99839000000004" lon="-1.5282499999999994">
				<time>2025-08-19T13:17:15.022Z</time>
			</trkpt>
			<trkpt lat="42.998330000000045" lon="-1.5281799999999994">
				<time>2025-08-19T13:17:16.022Z</time>
			</trkpt>
			<trkpt lat="42.99832000000004" lon="-1.5281999999999993">
				<time>2025-08-19T13:17:17.022Z</time>
			</trkpt>
			<trkpt lat="42.99843000000004" lon="-1.5283299999999993">
				<time>2025-08-19T13:17:18.022Z</time>
			</trkpt>
			<trkpt lat="42.99849000000004" lon="-1.5284599999999993">
				<time>2025-08-19T13:17:19.022Z</time>
			</trkpt>
			<trkpt lat="42.99851000000004" lon="-1.5285699999999993">
				<time>2025-08-19T13:17:20.022Z</time>
			</trkpt>
			<trkpt lat="42.99862000000004" lon="-1.5287399999999993">
				<time>2025-08-19T13:17:21.022Z</time>
			</trkpt>
			<trkpt lat="42.998700000000035" lon="-1.5288099999999993">
				<time>2025-08-19T13:17:22.022Z</time>
			</trkpt>
			<trkpt lat="42.99880000000004" lon="-1.5289799999999993">
				<time>2025-08-19T13:17:23.022Z</time>
			</trkpt>
			<trkpt lat="42.99882000000004" lon="-1.5291399999999993">
				<time>2025-08-19T13:17:24.022Z</time>
			</trkpt>
			<trkpt lat="42.99894000000004" lon="-1.5293199999999993">
				<time>2025-08-19T13:17:25.022Z</time>
			</trkpt>
			<trkpt lat="42.99896000000004" lon="-1.5293899999999994">
				<time>2025-08-19T13:17:26.022Z</time>
			</trkpt>
			<trkpt lat="42.99901000000004" lon="-1.5294699999999994">
				<time>2025-08-19T13:17:27.022Z</time>
			</trkpt>
			<trkpt lat="42.999110000000044" lon="-1.5296999999999994">
				<time>2025-08-19T13:17:28.022Z</time>
			</trkpt>
			<trkpt lat="42.999110000000044" lon="-1.5297399999999994">
				<time>2025-08-19T13:17:29.022Z</time>
			</trkpt>
			<trkpt lat="42.999090000000045" lon="-1.5297499999999995">
				<time>2025-08-19T13:17:30.022Z</time>
			</trkpt>
			<trkpt lat="42.998980000000046" lon="-1.5297299999999996">
				<time>2025-08-19T13:17:31.022Z</time>
			</trkpt>
			<trkpt lat="42.99883000000005" lon="-1.5296599999999996">
				<time>2025-08-19T13:17:32.022Z</time>
			</trkpt>
			<trkpt lat="42.99881000000005" lon="-1.5296299999999996">
				<time>2025-08-19T13:17:33.022Z</time>
			</trkpt>
			<trkpt lat="42.99877000000005" lon="-1.5296099999999997">
				<time>2025-08-19T13:17:34.022Z</time>
			</trkpt>
			<trkpt lat="42.99839000000005" lon="-1.5294899999999998">
				<time>2025-08-19T13:17:35.022Z</time>
			</trkpt>
			<trkpt lat="42.99822000000005" lon="-1.5294699999999999">
				<time>2025-08-19T13:17:36.022Z</time>
			</trkpt>
			<trkpt lat="42.99815000000005" lon="-1.52952">
				<time>2025-08-19T13:17:37.022Z</time>
			</trkpt>
			<trkpt lat="42.998090000000055" lon="-1.52951">
				<time>2025-08-19T13:17:38.022Z</time>
			</trkpt>
			<trkpt lat="42.99799000000005" lon="-1.52952">
				<time>2025-08-19T13:17:39.022Z</time>
			</trkpt>
			<trkpt lat="42.99795000000005" lon="-1.52962">
				<time>2025-08-19T13:17:40.022Z</time>
			</trkpt>
			<trkpt lat="42.99788000000005" lon="-1.52968">
				<time>2025-08-19T13:17:41.022Z</time>
			</trkpt>
			<trkpt lat="42.99774000000005" lon="-1.53002">
				<time>2025-08-19T13:17:42.022Z</time>
			</trkpt>
			<trkpt lat="42.99763000000005" lon="-1.53009">
				<time>2025-08-19T13:17:43.022Z</time>
			</trkpt>
			<trkpt lat="42.99749000000005" lon="-1.5300799999999999">
				<time>2025-08-19T13:17:44.022Z</time>
			</trkpt>
			<trkpt lat="42.99741000000005" lon="-1.53005">
				<time>2025-08-19T13:17:45.022Z</time>
			</trkpt>
			<trkpt lat="42.99736000000005" lon="-1.53015">
				<time>2025-08-19T13:17:46.022Z</time>
			</trkpt>
			<trkpt lat="42.99736000000005" lon="-1.5302499999999999">
				<time>2025-08-19T13:17:47.022Z</time>
			</trkpt>
			<trkpt lat="42.99719000000005" lon="-1.53056">
				<time>2025-08-19T13:17:48.022Z</time>
			</trkpt>
			<trkpt lat="42.997150000000055" lon="-1.53056">
				<time>2025-08-19T13:17:49.022Z</time>
			</trkpt>
			<trkpt lat="42.99710000000005" lon="-1.53044">
				<time>2025-08-19T13:17:50.022Z</time>
			</trkpt>
			<trkpt lat="42.997080000000054" lon="-1.53044">
				<time>2025-08-19T13:17:51.022Z</time>
			</trkpt>
			<trkpt lat="42.99705000000005" lon="-1.53047">
				<time>2025-08-19T13:17:52.022Z</time>
			</trkpt>
			<trkpt lat="42.99700000000005" lon="-1.53059">
				<time>2025-08-19T13:17:53.022Z</time>
			</trkpt>
			<trkpt lat="42.99695000000005" lon="-1.5306199999999999">
				<time>2025-08-19T13:17:54.022Z</time>
			</trkpt>
			<trkpt lat="42.996920000000046" lon="-1.5305699999999998">
				<time>2025-08-19T13:17:55.022Z</time>
			</trkpt>
			<trkpt lat="42.996830000000045" lon="-1.5305399999999998">
				<time>2025-08-19T13:17:56.022Z</time>
			</trkpt>
			<trkpt lat="42.996670000000044" lon="-1.5310199999999998">
				<time>2025-08-19T13:17:57.022Z</time>
			</trkpt>
			<trkpt lat="42.99655000000004" lon="-1.5309399999999997">
				<time>2025-08-19T13:17:58.022Z</time>
			</trkpt>
			<trkpt lat="42.99639000000004" lon="-1.5307999999999997">
				<time>2025-08-19T13:17:59.022Z</time>
			</trkpt>
			<trkpt lat="42.99627000000004" lon="-1.5310999999999997">
				<time>2025-08-19T13:18:00.022Z</time>
			</trkpt>
			<trkpt lat="42.99628000000004" lon="-1.5311199999999996">
				<time>2025-08-19T13:18:01.022Z</time>
			</trkpt>
			<trkpt lat="42.99619000000004" lon="-1.5313799999999995">
				<time>2025-08-19T13:18:02.022Z</time>
			</trkpt>
			<trkpt lat="42.99619000000004" lon="-1.5314399999999995">
				<time>2025-08-19T13:18:03.022Z</time>
			</trkpt>
			<trkpt lat="42.99614000000004" lon="-1.5315499999999995">
				<time>2025-08-19T13:18:04.022Z</time>
			</trkpt>
			<trkpt lat="42.99617000000004" lon="-1.5317599999999996">
				<time>2025-08-19T13:18:05.022Z</time>
			</trkpt>
			<trkpt lat="42.99616000000004" lon="-1.5318999999999996">
				<time>2025-08-19T13:18:06.022Z</time>
			</trkpt>
			<trkpt lat="42.99618000000004" lon="-1.5321799999999997">
				<time>2025-08-19T13:18:07.022Z</time>
			</trkpt>
			<trkpt lat="42.99611000000004" lon="-1.5322399999999996">
				<time>2025-08-19T13:18:08.022Z</time>
			</trkpt>
			<trkpt lat="42.99607000000004" lon="-1.5321299999999995">
				<time>2025-08-19T13:18:09.022Z</time>
			</trkpt>
			<trkpt lat="42.99600000000004" lon="-1.5320099999999996">
				<time>2025-08-19T13:18:10.022Z</time>
			</trkpt>
			<trkpt lat="42.995900000000034" lon="-1.5319199999999997">
				<time>2025-08-19T13:18:11.022Z</time>
			</trkpt>
			<trkpt lat="42.995860000000036" lon="-1.5319699999999998">
				<time>2025-08-19T13:18:12.022Z</time>
			</trkpt>
			<trkpt lat="42.995880000000035" lon="-1.5320099999999999">
				<time>2025-08-19T13:18:13.022Z</time>
			</trkpt>
			<trkpt lat="42.995860000000036" lon="-1.5321299999999998">
				<time>2025-08-19T13:18:14.022Z</time>
			</trkpt>
			<trkpt lat="42.99589000000004" lon="-1.5321799999999999">
				<time>2025-08-19T13:18:15.022Z</time>
			</trkpt>
			<trkpt lat="42.99590000000004" lon="-1.5322799999999999">
				<time>2025-08-19T13:18:16.022Z</time>
			</trkpt>
			<trkpt lat="42.99587000000004" lon="-1.53232">
				<time>2025-08-19T13:18:17.022Z</time>
			</trkpt>
			<trkpt lat="42.99542000000004" lon="-1.5320799999999999">
				<time>2025-08-19T13:18:18.022Z</time>
			</trkpt>
			<trkpt lat="42.99531000000004" lon="-1.5320799999999999">
				<time>2025-08-19T13:18:19.022Z</time>
			</trkpt>
			<trkpt lat="42.995300000000036" lon="-1.5321099999999999">
				<time>2025-08-19T13:18:20.022Z</time>
			</trkpt>
			<trkpt lat="42.99531000000004" lon="-1.5321699999999998">
				<time>2025-08-19T13:18:21.022Z</time>
			</trkpt>
			<trkpt lat="42.99536000000004" lon="-1.53225">
				<time>2025-08-19T13:18:22.022Z</time>
			</trkpt>
			<trkpt lat="42.995370000000044" lon="-1.53233">
				<time>2025-08-19T13:18:23.022Z</time>
			</trkpt>
			<trkpt lat="42.99559000000004" lon="-1.53271">
				<time>2025-08-19T13:18:24.022Z</time>
			</trkpt>
			<trkpt lat="42.99550000000004" lon="-1.5327">
				<time>2025-08-19T13:18:25.022Z</time>
			</trkpt>
			<trkpt lat="42.99525000000004" lon="-1.5326">
				<time>2025-08-19T13:18:26.022Z</time>
			</trkpt>
			<trkpt lat="42.99595000000004" lon="-1.53482">
				<time>2025-08-19T13:18:27.022Z</time>
			</trkpt>
			<trkpt lat="42.99619000000004" lon="-1.53536">
				<time>2025-08-19T13:18:28.022Z</time>
			</trkpt>
			<trkpt lat="42.99681000000004" lon="-1.5362500000000001">
				<time>2025-08-19T13:18:29.022Z</time>
			</trkpt>
			<trkpt lat="42.99687000000004" lon="-1.53648">
				<time>2025-08-19T13:18:30.022Z</time>
			</trkpt>
			<trkpt lat="42.99688000000004" lon="-1.53668">
				<time>2025-08-19T13:18:31.022Z</time>
			</trkpt>
			<trkpt lat="42.99677000000004" lon="-1.5364900000000001">
				<time>2025-08-19T13:18:32.022Z</time>
			</trkpt>
			<trkpt lat="42.99662000000004" lon="-1.5363900000000001">
				<time>2025-08-19T13:18:33.022Z</time>
			</trkpt>
			<trkpt lat="42.996630000000046" lon="-1.5366400000000002">
				<time>2025-08-19T13:18:34.022Z</time>
			</trkpt>
			<trkpt lat="42.99657000000005" lon="-1.5366600000000001">
				<time>2025-08-19T13:18:35.022Z</time>
			</trkpt>
			<trkpt lat="42.996450000000046" lon="-1.53652">
				<time>2025-08-19T13:18:36.022Z</time>
			</trkpt>
			<trkpt lat="42.99615000000004" lon="-1.5362300000000002">
				<time>2025-08-19T13:18:37.022Z</time>
			</trkpt>
			<trkpt lat="42.996070000000046" lon="-1.5361000000000002">
				<time>2025-08-19T13:18:38.022Z</time>
			</trkpt>
			<trkpt lat="42.99599000000005" lon="-1.5360500000000001">
				<time>2025-08-19T13:18:39.022Z</time>
			</trkpt>
			<trkpt lat="42.99594000000005" lon="-1.5360600000000002">
				<time>2025-08-19T13:18:40.022Z</time>
			</trkpt>
			<trkpt lat="42.99605000000005" lon="-1.5362800000000003">
				<time>2025-08-19T13:18:41.022Z</time>
			</trkpt>
			<trkpt lat="42.996090000000045" lon="-1.5365100000000003">
				<time>2025-08-19T13:18:42.022Z</time>
			</trkpt>
			<trkpt lat="42.99615000000004" lon="-1.5365700000000002">
				<time>2025-08-19T13:18:43.022Z</time>
			</trkpt>
			<trkpt lat="42.996160000000046" lon="-1.5368200000000003">
				<time>2025-08-19T13:18:44.022Z</time>
			</trkpt>
			<trkpt lat="42.99614000000005" lon="-1.5369400000000002">
				<time>2025-08-19T13:18:45.022Z</time>
			</trkpt>
			<trkpt lat="42.996180000000045" lon="-1.5370200000000003">
				<time>2025-08-19T13:18:46.022Z</time>
			</trkpt>
			<trkpt lat="42.99612000000005" lon="-1.5371500000000002">
				<time>2025-08-19T13:18:47.022Z</time>
			</trkpt>
			<trkpt lat="42.99613000000005" lon="-1.5372400000000002">
				<time>2025-08-19T13:18:48.022Z</time>
			</trkpt>
			<trkpt lat="42.99608000000005" lon="-1.5373500000000002">
				<time>2025-08-19T13:18:49.022Z</time>
			</trkpt>
			<trkpt lat="42.99604000000005" lon="-1.5373700000000001">
				<time>2025-08-19T13:18:50.022Z</time>
			</trkpt>
			<trkpt lat="42.99602000000005" lon="-1.5373400000000002">
				<time>2025-08-19T13:18:51.022Z</time>
			</trkpt>
			<trkpt lat="42.99597000000005" lon="-1.53709">
				<time>2025-08-19T13:18:52.022Z</time>
			</trkpt>
			<trkpt lat="42.99593000000005" lon="-1.53704">
				<time>2025-08-19T13:18:53.022Z</time>
			</trkpt>
			<trkpt lat="42.99587000000005" lon="-1.5368899999999999">
				<time>2025-08-19T13:18:54.022Z</time>
			</trkpt>
			<trkpt lat="42.99580000000005" lon="-1.5367899999999999">
				<time>2025-08-19T13:18:55.022Z</time>
			</trkpt>
			<trkpt lat="42.99569000000005" lon="-1.5367199999999999">
				<time>2025-08-19T13:18:56.022Z</time>
			</trkpt>
			<trkpt lat="42.99568000000005" lon="-1.53669">
				<time>2025-08-19T13:18:57.022Z</time>
			</trkpt>
			<trkpt lat="42.99550000000005" lon="-1.5366099999999998">
				<time>2025-08-19T13:18:58.022Z</time>
			</trkpt>
			<trkpt lat="42.99543000000005" lon="-1.5365599999999997">
				<time>2025-08-19T13:18:59.022Z</time>
			</trkpt>
			<trkpt lat="42.99544000000005" lon="-1.5366399999999998">
				<time>2025-08-19T13:19:00.022Z</time>
			</trkpt>
			<trkpt lat="42.99542000000005" lon="-1.5370199999999998">
				<time>2025-08-19T13:19:01.022Z</time>
			</trkpt>
			<trkpt lat="42.99524000000005" lon="-1.5382099999999999">
				<time>2025-08-19T13:19:02.022Z</time>
			</trkpt>
			<trkpt lat="42.99513000000005" lon="-1.53846">
				<time>2025-08-19T13:19:03.022Z</time>
			</trkpt>
			<trkpt lat="42.995140000000056" lon="-1.5387499999999998">
				<time>2025-08-19T13:19:04.022Z</time>
			</trkpt>
			<trkpt lat="42.994890000000055" lon="-1.5391199999999998">
				<time>2025-08-19T13:19:05.022Z</time>
			</trkpt>
			<trkpt lat="42.99477000000005" lon="-1.53944">
				<time>2025-08-19T13:19:06.022Z</time>
			</trkpt>
			<trkpt lat="42.994710000000055" lon="-1.5397299999999998">
				<time>2025-08-19T13:19:07.022Z</time>
			</trkpt>
			<trkpt lat="42.994490000000056" lon="-1.54049">
				<time>2025-08-19T13:19:08.022Z</time>
			</trkpt>
			<trkpt lat="42.99437000000005" lon="-1.5406799999999998">
				<time>2025-08-19T13:19:09.022Z</time>
			</trkpt>
			<trkpt lat="42.994240000000055" lon="-1.5409399999999998">
				<time>2025-08-19T13:19:10.022Z</time>
			</trkpt>
			<trkpt lat="42.994110000000056" lon="-1.5410599999999997">
				<time>2025-08-19T13:19:11.022Z</time>
			</trkpt>
			<trkpt lat="42.994040000000055" lon="-1.5412099999999997">
				<time>2025-08-19T13:19:12.022Z</time>
			</trkpt>
			<trkpt lat="42.99394000000005" lon="-1.5413499999999998">
				<time>2025-08-19T13:19:13.022Z</time>
			</trkpt>
			<trkpt lat="42.993950000000055" lon="-1.5413899999999998">
				<time>2025-08-19T13:19:14.022Z</time>
			</trkpt>
			<trkpt lat="42.993930000000056" lon="-1.5415999999999999">
				<time>2025-08-19T13:19:15.022Z</time>
			</trkpt>
			<trkpt lat="42.99394000000006" lon="-1.5416299999999998">
				<time>2025-08-19T13:19:16.022Z</time>
			</trkpt>
			<trkpt lat="42.99392000000006" lon="-1.5416999999999998">
				<time>2025-08-19T13:19:17.022Z</time>
			</trkpt>
			<trkpt lat="42.99381000000006" lon="-1.5418599999999998">
				<time>2025-08-19T13:19:18.022Z</time>
			</trkpt>
			<trkpt lat="42.99379000000006" lon="-1.5419299999999998">
				<time>2025-08-19T13:19:19.022Z</time>
			</trkpt>
			<trkpt lat="42.99387000000006" lon="-1.5421099999999999">
				<time>2025-08-19T13:19:20.022Z</time>
			</trkpt>
			<trkpt lat="42.99392000000006" lon="-1.5422699999999998">
				<time>2025-08-19T13:19:21.022Z</time>
			</trkpt>
			<trkpt lat="42.99389000000006" lon="-1.5422999999999998">
				<time>2025-08-19T13:19:22.022Z</time>
			</trkpt>
			<trkpt lat="42.993770000000055" lon="-1.5422399999999998">
				<time>2025-08-19T13:19:23.022Z</time>
			</trkpt>
			<trkpt lat="42.99376000000005" lon="-1.5422999999999998">
				<time>2025-08-19T13:19:24.022Z</time>
			</trkpt>
			<trkpt lat="42.993790000000054" lon="-1.5424299999999997">
				<time>2025-08-19T13:19:25.022Z</time>
			</trkpt>
			<trkpt lat="42.993840000000056" lon="-1.5425599999999997">
				<time>2025-08-19T13:19:26.022Z</time>
			</trkpt>
			<trkpt lat="42.99389000000006" lon="-1.5426399999999998">
				<time>2025-08-19T13:19:27.022Z</time>
			</trkpt>
			<trkpt lat="42.99390000000006" lon="-1.5427599999999997">
				<time>2025-08-19T13:19:28.022Z</time>
			</trkpt>
			<trkpt lat="42.99397000000006" lon="-1.5429699999999997">
				<time>2025-08-19T13:19:29.022Z</time>
			</trkpt>
			<trkpt lat="42.99406000000006" lon="-1.5431299999999997">
				<time>2025-08-19T13:19:30.022Z</time>
			</trkpt>
			<trkpt lat="42.99410000000006" lon="-1.5433899999999996">
				<time>2025-08-19T13:19:31.022Z</time>
			</trkpt>
			<trkpt lat="42.99413000000006" lon="-1.5434599999999996">
				<time>2025-08-19T13:19:32.022Z</time>
			</trkpt>
			<trkpt lat="42.99421000000006" lon="-1.5438699999999996">
				<time>2025-08-19T13:19:33.022Z</time>
			</trkpt>
			<trkpt lat="42.99421000000006" lon="-1.5440399999999996">
				<time>2025-08-19T13:19:34.022Z</time>
			</trkpt>
			<trkpt lat="42.99427000000006" lon="-1.5441699999999996">
				<time>2025-08-19T13:19:35.022Z</time>
			</trkpt>
			<trkpt lat="42.99428000000006" lon="-1.5443499999999997">
				<time>2025-08-19T13:19:36.022Z</time>
			</trkpt>
			<trkpt lat="42.99435000000006" lon="-1.5445699999999998">
				<time>2025-08-19T13:19:37.022Z</time>
			</trkpt>
			<trkpt lat="42.99440000000006" lon="-1.5448199999999999">
				<time>2025-08-19T13:19:38.022Z</time>
			</trkpt>
			<trkpt lat="42.994410000000066" lon="-1.5451099999999998">
				<time>2025-08-19T13:19:39.022Z</time>
			</trkpt>
			<trkpt lat="42.99440000000006" lon="-1.5452699999999997">
				<time>2025-08-19T13:19:40.022Z</time>
			</trkpt>
			<trkpt lat="42.994430000000065" lon="-1.5453999999999997">
				<time>2025-08-19T13:19:41.022Z</time>
			</trkpt>
			<trkpt lat="42.99444000000007" lon="-1.5455799999999997">
				<time>2025-08-19T13:19:42.022Z</time>
			</trkpt>
			<trkpt lat="42.99442000000007" lon="-1.5457699999999996">
				<time>2025-08-19T13:19:43.022Z</time>
			</trkpt>
			<trkpt lat="42.99436000000007" lon="-1.5459899999999998">
				<time>2025-08-19T13:19:44.022Z</time>
			</trkpt>
			<trkpt lat="42.99431000000007" lon="-1.5460899999999997">
				<time>2025-08-19T13:19:45.022Z</time>
			</trkpt>
			<trkpt lat="42.99423000000007" lon="-1.5461899999999997">
				<time>2025-08-19T13:19:46.022Z</time>
			</trkpt>
			<trkpt lat="42.99412000000007" lon="-1.5464099999999998">
				<time>2025-08-19T13:19:47.022Z</time>
			</trkpt>
			<trkpt lat="42.993880000000075" lon="-1.54666">
				<time>2025-08-19T13:19:48.022Z</time>
			</trkpt>
			<trkpt lat="42.99366000000008" lon="-1.54683">
				<time>2025-08-19T13:19:49.022Z</time>
			</trkpt>
			<trkpt lat="42.99360000000008" lon="-1.54686">
				<time>2025-08-19T13:19:50.022Z</time>
			</trkpt>
			<trkpt lat="42.993590000000076" lon="-1.5468199999999999">
				<time>2025-08-19T13:19:51.022Z</time>
			</trkpt>
			<trkpt lat="42.993610000000075" lon="-1.5467799999999998">
				<time>2025-08-19T13:19:52.022Z</time>
			</trkpt>
			<trkpt lat="42.993590000000076" lon="-1.5467099999999998">
				<time>2025-08-19T13:19:53.022Z</time>
			</trkpt>
			<trkpt lat="42.993540000000074" lon="-1.5466599999999997">
				<time>2025-08-19T13:19:54.022Z</time>
			</trkpt>
			<trkpt lat="42.99342000000007" lon="-1.5466199999999997">
				<time>2025-08-19T13:19:55.022Z</time>
			</trkpt>
			<trkpt lat="42.99337000000007" lon="-1.5465399999999996">
				<time>2025-08-19T13:19:56.022Z</time>
			</trkpt>
			<trkpt lat="42.99330000000007" lon="-1.5464999999999995">
				<time>2025-08-19T13:19:57.022Z</time>
			</trkpt>
			<trkpt lat="42.99315000000007" lon="-1.5464799999999996">
				<time>2025-08-19T13:19:58.022Z</time>
			</trkpt>
			<trkpt lat="42.99303000000007" lon="-1.5465499999999996">
				<time>2025-08-19T13:19:59.022Z</time>
			</trkpt>
			<trkpt lat="42.99296000000007" lon="-1.5465799999999996">
				<time>2025-08-19T13:20:00.022Z</time>
			</trkpt>
			<trkpt lat="42.99292000000007" lon="-1.5465799999999996">
				<time>2025-08-19T13:20:01.022Z</time>
			</trkpt>
			<trkpt lat="42.99281000000007" lon="-1.5465499999999996">
				<time>2025-08-19T13:20:02.022Z</time>
			</trkpt>
			<trkpt lat="42.99276000000007" lon="-1.5465099999999996">
				<time>2025-08-19T13:20:03.022Z</time>
			</trkpt>
			<trkpt lat="42.99270000000007" lon="-1.5465099999999996">
				<time>2025-08-19T13:20:04.022Z</time>
			</trkpt>
			<trkpt lat="42.99258000000007" lon="-1.5464699999999996">
				<time>2025-08-19T13:20:05.022Z</time>
			</trkpt>
			<trkpt lat="42.992460000000065" lon="-1.5464599999999995">
				<time>2025-08-19T13:20:06.022Z</time>
			</trkpt>
			<trkpt lat="42.992370000000065" lon="-1.5464799999999994">
				<time>2025-08-19T13:20:07.022Z</time>
			</trkpt>
			<trkpt lat="42.99233000000007" lon="-1.5464699999999993">
				<time>2025-08-19T13:20:08.022Z</time>
			</trkpt>
			<trkpt lat="42.99225000000007" lon="-1.5464199999999992">
				<time>2025-08-19T13:20:09.022Z</time>
			</trkpt>
			<trkpt lat="42.992150000000066" lon="-1.5463899999999993">
				<time>2025-08-19T13:20:10.022Z</time>
			</trkpt>
			<trkpt lat="42.991990000000065" lon="-1.5463699999999994">
				<time>2025-08-19T13:20:11.022Z</time>
			</trkpt>
			<trkpt lat="42.991920000000064" lon="-1.5463099999999994">
				<time>2025-08-19T13:20:12.022Z</time>
			</trkpt>
			<trkpt lat="42.991790000000066" lon="-1.5462499999999995">
				<time>2025-08-19T13:20:13.022Z</time>
			</trkpt>
			<trkpt lat="42.99166000000007" lon="-1.5463799999999994">
				<time>2025-08-19T13:20:14.022Z</time>
			</trkpt>
			<trkpt lat="42.99151000000007" lon="-1.5464899999999995">
				<time>2025-08-19T13:20:15.022Z</time>
			</trkpt>
			<trkpt lat="42.99138000000007" lon="-1.5464899999999995">
				<time>2025-08-19T13:20:16.022Z</time>
			</trkpt>
			<trkpt lat="42.99134000000007" lon="-1.5464599999999995">
				<time>2025-08-19T13:20:17.022Z</time>
			</trkpt>
			<trkpt lat="42.99131000000007" lon="-1.5464899999999995">
				<time>2025-08-19T13:20:18.022Z</time>
			</trkpt>
			<trkpt lat="42.99123000000007" lon="-1.5465199999999995">
				<time>2025-08-19T13:20:19.022Z</time>
			</trkpt>
			<trkpt lat="42.99104000000007" lon="-1.5467499999999994">
				<time>2025-08-19T13:20:20.022Z</time>
			</trkpt>
			<trkpt lat="42.99075000000007" lon="-1.5470399999999993">
				<time>2025-08-19T13:20:21.022Z</time>
			</trkpt>
			<trkpt lat="42.99042000000007" lon="-1.5473199999999994">
				<time>2025-08-19T13:20:22.022Z</time>
			</trkpt>
			<trkpt lat="42.99028000000007" lon="-1.5474599999999994">
				<time>2025-08-19T13:20:23.022Z</time>
			</trkpt>
			<trkpt lat="42.99002000000007" lon="-1.5474899999999994">
				<time>2025-08-19T13:20:24.022Z</time>
			</trkpt>
			<trkpt lat="42.98997000000007" lon="-1.5474099999999993">
				<time>2025-08-19T13:20:25.022Z</time>
			</trkpt>
			<trkpt lat="42.98991000000007" lon="-1.5472599999999992">
				<time>2025-08-19T13:20:26.022Z</time>
			</trkpt>
			<trkpt lat="42.989670000000075" lon="-1.547009999999999">
				<time>2025-08-19T13:20:27.022Z</time>
			</trkpt>
			<trkpt lat="42.98966000000007" lon="-1.5469799999999991">
				<time>2025-08-19T13:20:28.022Z</time>
			</trkpt>
			<trkpt lat="42.989580000000075" lon="-1.546939999999999">
				<time>2025-08-19T13:20:29.022Z</time>
			</trkpt>
			<trkpt lat="42.98957000000007" lon="-1.5471499999999991">
				<time>2025-08-19T13:20:30.022Z</time>
			</trkpt>
			<trkpt lat="42.98952000000007" lon="-1.547309999999999">
				<time>2025-08-19T13:20:31.022Z</time>
			</trkpt>
			<trkpt lat="42.98948000000007" lon="-1.5473199999999991">
				<time>2025-08-19T13:20:32.022Z</time>
			</trkpt>
			<trkpt lat="42.98933000000007" lon="-1.5471899999999992">
				<time>2025-08-19T13:20:33.022Z</time>
			</trkpt>
			<trkpt lat="42.989270000000076" lon="-1.5472199999999992">
				<time>2025-08-19T13:20:34.022Z</time>
			</trkpt>
			<trkpt lat="42.98930000000008" lon="-1.5474599999999992">
				<time>2025-08-19T13:20:35.022Z</time>
			</trkpt>
			<trkpt lat="42.98935000000008" lon="-1.547619999999999">
				<time>2025-08-19T13:20:36.022Z</time>
			</trkpt>
			<trkpt lat="42.98934000000008" lon="-1.5477599999999991">
				<time>2025-08-19T13:20:37.022Z</time>
			</trkpt>
			<trkpt lat="42.989310000000074" lon="-1.5477699999999992">
				<time>2025-08-19T13:20:38.022Z</time>
			</trkpt>
			<trkpt lat="42.98925000000008" lon="-1.5477399999999992">
				<time>2025-08-19T13:20:39.022Z</time>
			</trkpt>
			<trkpt lat="42.989220000000074" lon="-1.5477599999999991">
				<time>2025-08-19T13:20:40.022Z</time>
			</trkpt>
			<trkpt lat="42.98921000000007" lon="-1.5478299999999992">
				<time>2025-08-19T13:20:41.022Z</time>
			</trkpt>
			<trkpt lat="42.98910000000007" lon="-1.5480799999999992">
				<time>2025-08-19T13:20:42.022Z</time>
			</trkpt>
			<trkpt lat="42.98900000000007" lon="-1.5482499999999992">
				<time>2025-08-19T13:20:43.022Z</time>
			</trkpt>
			<trkpt lat="42.98893000000007" lon="-1.5483099999999992">
				<time>2025-08-19T13:20:44.022Z</time>
			</trkpt>
			<trkpt lat="42.98885000000007" lon="-1.548229999999999">
				<time>2025-08-19T13:20:45.022Z</time>
			</trkpt>
			<trkpt lat="42.98883000000007" lon="-1.548219999999999">
				<time>2025-08-19T13:20:46.022Z</time>
			</trkpt>
			<trkpt lat="42.98881000000007" lon="-1.548229999999999">
				<time>2025-08-19T13:20:47.022Z</time>
			</trkpt>
			<trkpt lat="42.988730000000075" lon="-1.5484499999999992">
				<time>2025-08-19T13:20:48.022Z</time>
			</trkpt>
			<trkpt lat="42.98868000000007" lon="-1.5484999999999993">
				<time>2025-08-19T13:20:49.022Z</time>
			</trkpt>
			<trkpt lat="42.98865000000007" lon="-1.5485099999999994">
				<time>2025-08-19T13:20:50.022Z</time>
			</trkpt>
			<trkpt lat="42.98861000000007" lon="-1.5485899999999995">
				<time>2025-08-19T13:20:51.022Z</time>
			</trkpt>
			<trkpt lat="42.988550000000075" lon="-1.5486399999999996">
				<time>2025-08-19T13:20:52.022Z</time>
			</trkpt>
			<trkpt lat="42.98850000000007" lon="-1.5486499999999996">
				<time>2025-08-19T13:20:53.022Z</time>
			</trkpt>
			<trkpt lat="42.98834000000007" lon="-1.5486299999999997">
				<time>2025-08-19T13:20:54.022Z</time>
			</trkpt>
			<trkpt lat="42.98824000000007" lon="-1.5485099999999998">
				<time>2025-08-19T13:20:55.022Z</time>
			</trkpt>
			<trkpt lat="42.98819000000007" lon="-1.5483599999999997">
				<time>2025-08-19T13:20:56.022Z</time>
			</trkpt>
			<trkpt lat="42.98810000000007" lon="-1.5482799999999997">
				<time>2025-08-19T13:20:57.022Z</time>
			</trkpt>
			<trkpt lat="42.98759000000007" lon="-1.5484499999999997">
				<time>2025-08-19T13:20:58.022Z</time>
			</trkpt>
			<trkpt lat="42.98737000000007" lon="-1.5484699999999996">
				<time>2025-08-19T13:20:59.022Z</time>
			</trkpt>
			<trkpt lat="42.98722000000007" lon="-1.5483199999999995">
				<time>2025-08-19T13:21:00.022Z</time>
			</trkpt>
			<trkpt lat="42.98708000000007" lon="-1.5480199999999995">
				<time>2025-08-19T13:21:01.022Z</time>
			</trkpt>
			<trkpt lat="42.98709000000007" lon="-1.5475999999999994">
				<time>2025-08-19T13:21:02.022Z</time>
			</trkpt>
			<trkpt lat="42.98715000000007" lon="-1.5472599999999994">
				<time>2025-08-19T13:21:03.022Z</time>
			</trkpt>
			<trkpt lat="42.98724000000007" lon="-1.5470199999999994">
				<time>2025-08-19T13:21:04.022Z</time>
			</trkpt>
			<trkpt lat="42.98760000000007" lon="-1.5469499999999994">
				<time>2025-08-19T13:21:05.022Z</time>
			</trkpt>
			<trkpt lat="42.987900000000074" lon="-1.5467799999999994">
				<time>2025-08-19T13:21:06.022Z</time>
			</trkpt>
			<trkpt lat="42.98798000000007" lon="-1.5465199999999995">
				<time>2025-08-19T13:21:07.022Z</time>
			</trkpt>
			<trkpt lat="42.988370000000074" lon="-1.5458899999999995">
				<time>2025-08-19T13:21:08.022Z</time>
			</trkpt>
			<trkpt lat="42.988370000000074" lon="-1.5457999999999996">
				<time>2025-08-19T13:21:09.022Z</time>
			</trkpt>
			<trkpt lat="42.98831000000008" lon="-1.5457199999999995">
				<time>2025-08-19T13:21:10.022Z</time>
			</trkpt>
			<trkpt lat="42.98834000000008" lon="-1.5456499999999995">
				<time>2025-08-19T13:21:11.022Z</time>
			</trkpt>
			<trkpt lat="42.98825000000008" lon="-1.5455999999999994">
				<time>2025-08-19T13:21:12.022Z</time>
			</trkpt>
			<trkpt lat="42.98820000000008" lon="-1.5455199999999993">
				<time>2025-08-19T13:21:13.022Z</time>
			</trkpt>
			<trkpt lat="42.98812000000008" lon="-1.5453199999999994">
				<time>2025-08-19T13:21:14.022Z</time>
			</trkpt>
			<trkpt lat="42.98795000000008" lon="-1.5452199999999994">
				<time>2025-08-19T13:21:15.022Z</time>
			</trkpt>
			<trkpt lat="42.987800000000085" lon="-1.5451899999999994">
				<time>2025-08-19T13:21:16.022Z</time>
			</trkpt>
			<trkpt lat="42.987710000000085" lon="-1.5448799999999994">
				<time>2025-08-19T13:21:17.022Z</time>
			</trkpt>
			<trkpt lat="42.987800000000085" lon="-1.5446399999999993">
				<time>2025-08-19T13:21:18.022Z</time>
			</trkpt>
			<trkpt lat="42.98763000000009" lon="-1.5444199999999992">
				<time>2025-08-19T13:21:19.022Z</time>
			</trkpt>
			<trkpt lat="42.987530000000085" lon="-1.5442299999999993">
				<time>2025-08-19T13:21:20.022Z</time>
			</trkpt>
			<trkpt lat="42.987260000000084" lon="-1.5439499999999993">
				<time>2025-08-19T13:21:21.022Z</time>
			</trkpt>
			<trkpt lat="42.98694000000008" lon="-1.5434699999999992">
				<time>2025-08-19T13:21:22.022Z</time>
			</trkpt>
			<trkpt lat="42.98689000000008" lon="-1.5433699999999992">
				<time>2025-08-19T13:21:23.022Z</time>
			</trkpt>
			<trkpt lat="42.98670000000008" lon="-1.5431299999999992">
				<time>2025-08-19T13:21:24.022Z</time>
			</trkpt>
			<trkpt lat="42.98662000000008" lon="-1.5428399999999993">
				<time>2025-08-19T13:21:25.022Z</time>
			</trkpt>
			<trkpt lat="42.98656000000008" lon="-1.5427499999999994">
				<time>2025-08-19T13:21:26.022Z</time>
			</trkpt>
			<trkpt lat="42.98649000000008" lon="-1.5424299999999993">
				<time>2025-08-19T13:21:27.022Z</time>
			</trkpt>
			<trkpt lat="42.986410000000085" lon="-1.5422199999999993">
				<time>2025-08-19T13:21:28.022Z</time>
			</trkpt>
			<trkpt lat="42.98622000000008" lon="-1.5418899999999993">
				<time>2025-08-19T13:21:29.022Z</time>
			</trkpt>
			<trkpt lat="42.98606000000008" lon="-1.5417399999999992">
				<time>2025-08-19T13:21:30.022Z</time>
			</trkpt>
			<trkpt lat="42.98598000000008" lon="-1.5414999999999992">
				<time>2025-08-19T13:21:31.022Z</time>
			</trkpt>
			<trkpt lat="42.985780000000084" lon="-1.5413999999999992">
				<time>2025-08-19T13:21:32.022Z</time>
			</trkpt>
			<trkpt lat="42.98559000000008" lon="-1.5411399999999993">
				<time>2025-08-19T13:21:33.022Z</time>
			</trkpt>
			<trkpt lat="42.98548000000008" lon="-1.5409199999999992">
				<time>2025-08-19T13:21:34.022Z</time>
			</trkpt>
			<trkpt lat="42.98535000000008" lon="-1.540499999999999">
				<time>2025-08-19T13:21:35.022Z</time>
			</trkpt>
			<trkpt lat="42.98535000000008" lon="-1.5402999999999991">
				<time>2025-08-19T13:21:36.022Z</time>
			</trkpt>
			<trkpt lat="42.98532000000008" lon="-1.540129999999999">
				<time>2025-08-19T13:21:37.022Z</time>
			</trkpt>
			<trkpt lat="42.98524000000008" lon="-1.5399299999999991">
				<time>2025-08-19T13:21:38.022Z</time>
			</trkpt>
			<trkpt lat="42.98514000000008" lon="-1.5395399999999992">
				<time>2025-08-19T13:21:39.022Z</time>
			</trkpt>
			<trkpt lat="42.98502000000008" lon="-1.5392599999999992">
				<time>2025-08-19T13:21:40.022Z</time>
			</trkpt>
			<trkpt lat="42.98494000000008" lon="-1.5388999999999993">
				<time>2025-08-19T13:21:41.022Z</time>
			</trkpt>
			<trkpt lat="42.98461000000008" lon="-1.5382099999999992">
				<time>2025-08-19T13:21:42.022Z</time>
			</trkpt>
			<trkpt lat="42.98454000000008" lon="-1.5379499999999993">
				<time>2025-08-19T13:21:43.022Z</time>
			</trkpt>
			<trkpt lat="42.984550000000084" lon="-1.5377499999999993">
				<time>2025-08-19T13:21:44.022Z</time>
			</trkpt>
			<trkpt lat="42.984440000000085" lon="-1.5373699999999992">
				<time>2025-08-19T13:21:45.022Z</time>
			</trkpt>
			<trkpt lat="42.984510000000085" lon="-1.5372299999999992">
				<time>2025-08-19T13:21:46.022Z</time>
			</trkpt>
			<trkpt lat="42.98439000000008" lon="-1.537009999999999">
				<time>2025-08-19T13:21:47.022Z</time>
			</trkpt>
			<trkpt lat="42.984420000000085" lon="-1.5368099999999991">
				<time>2025-08-19T13:21:48.022Z</time>
			</trkpt>
			<trkpt lat="42.984440000000085" lon="-1.5361699999999991">
				<time>2025-08-19T13:21:49.022Z</time>
			</trkpt>
			<trkpt lat="42.984640000000084" lon="-1.5362199999999993">
				<time>2025-08-19T13:21:50.022Z</time>
			</trkpt>
			<trkpt lat="42.98512000000009" lon="-1.5368199999999992">
				<time>2025-08-19T13:21:51.022Z</time>
			</trkpt>
			<trkpt lat="42.98539000000009" lon="-1.5369999999999993">
				<time>2025-08-19T13:21:52.022Z</time>
			</trkpt>
			<trkpt lat="42.985740000000085" lon="-1.5371799999999993">
				<time>2025-08-19T13:21:53.022Z</time>
			</trkpt>
			<trkpt lat="42.98564000000008" lon="-1.5368399999999993">
				<time>2025-08-19T13:21:54.022Z</time>
			</trkpt>
			<trkpt lat="42.98572000000008" lon="-1.5369399999999993">
				<time>2025-08-19T13:21:55.022Z</time>
			</trkpt>
			<trkpt lat="42.98584000000008" lon="-1.5368799999999994">
				<time>2025-08-19T13:21:56.022Z</time>
			</trkpt>
			<trkpt lat="42.98591000000008" lon="-1.5367399999999993">
				<time>2025-08-19T13:21:57.022Z</time>
			</trkpt>
			<trkpt lat="42.985850000000084" lon="-1.5365899999999992">
				<time>2025-08-19T13:21:58.022Z</time>
			</trkpt>
			<trkpt lat="42.985960000000084" lon="-1.5363399999999992">
				<time>2025-08-19T13:21:59.022Z</time>
			</trkpt>
			<trkpt lat="42.98579000000009" lon="-1.5361099999999992">
				<time>2025-08-19T13:22:00.022Z</time>
			</trkpt>
			<trkpt lat="42.98564000000009" lon="-1.5358599999999991">
				<time>2025-08-19T13:22:01.022Z</time>
			</trkpt>
			<trkpt lat="42.985630000000086" lon="-1.535639999999999">
				<time>2025-08-19T13:22:02.022Z</time>
			</trkpt>
			<trkpt lat="42.985540000000086" lon="-1.535519999999999">
				<time>2025-08-19T13:22:03.022Z</time>
			</trkpt>
			<trkpt lat="42.98530000000009" lon="-1.5354899999999991">
				<time>2025-08-19T13:22:04.022Z</time>
			</trkpt>
			<trkpt lat="42.98517000000009" lon="-1.5353899999999991">
				<time>2025-08-19T13:22:05.022Z</time>
			</trkpt>
			<trkpt lat="42.985050000000086" lon="-1.5352199999999991">
				<time>2025-08-19T13:22:06.022Z</time>
			</trkpt>
			<trkpt lat="42.98495000000008" lon="-1.535039999999999">
				<time>2025-08-19T13:22:07.022Z</time>
			</trkpt>
			<trkpt lat="42.984530000000085" lon="-1.534799999999999">
				<time>2025-08-19T13:22:08.022Z</time>
			</trkpt>
			<trkpt lat="42.98430000000008" lon="-1.534759999999999">
				<time>2025-08-19T13:22:09.022Z</time>
			</trkpt>
			<trkpt lat="42.983900000000084" lon="-1.534269999999999">
				<time>2025-08-19T13:22:10.022Z</time>
			</trkpt>
			<trkpt lat="42.983750000000086" lon="-1.5339599999999989">
				<time>2025-08-19T13:22:11.022Z</time>
			</trkpt>
			<trkpt lat="42.98365000000008" lon="-1.5338099999999988">
				<time>2025-08-19T13:22:12.022Z</time>
			</trkpt>
			<trkpt lat="42.98358000000008" lon="-1.5336699999999988">
				<time>2025-08-19T13:22:13.022Z</time>
			</trkpt>
			<trkpt lat="42.98356000000008" lon="-1.5334199999999987">
				<time>2025-08-19T13:22:14.022Z</time>
			</trkpt>
			<trkpt lat="42.983500000000085" lon="-1.5330399999999986">
				<time>2025-08-19T13:22:15.022Z</time>
			</trkpt>
			<trkpt lat="42.98351000000009" lon="-1.5327299999999986">
				<time>2025-08-19T13:22:16.022Z</time>
			</trkpt>
			<trkpt lat="42.98333000000009" lon="-1.5322599999999986">
				<time>2025-08-19T13:22:17.022Z</time>
			</trkpt>
			<trkpt lat="42.98343000000009" lon="-1.5317199999999986">
				<time>2025-08-19T13:22:18.022Z</time>
			</trkpt>
			<trkpt lat="42.98347000000009" lon="-1.5313999999999985">
				<time>2025-08-19T13:22:19.022Z</time>
			</trkpt>
			<trkpt lat="42.98313000000009" lon="-1.5308499999999985">
				<time>2025-08-19T13:22:20.022Z</time>
			</trkpt>
			<trkpt lat="42.98279000000009" lon="-1.5302099999999985">
				<time>2025-08-19T13:22:21.022Z</time>
			</trkpt>
			<trkpt lat="42.98270000000009" lon="-1.5299699999999985">
				<time>2025-08-19T13:22:22.022Z</time>
			</trkpt>
			<trkpt lat="42.982720000000086" lon="-1.5298199999999984">
				<time>2025-08-19T13:22:23.022Z</time>
			</trkpt>
			<trkpt lat="42.98270000000009" lon="-1.5296799999999984">
				<time>2025-08-19T13:22:24.022Z</time>
			</trkpt>
			<trkpt lat="42.982450000000085" lon="-1.5292299999999983">
				<time>2025-08-19T13:22:25.022Z</time>
			</trkpt>
			<trkpt lat="42.982380000000084" lon="-1.5287399999999982">
				<time>2025-08-19T13:22:26.022Z</time>
			</trkpt>
			<trkpt lat="42.98232000000009" lon="-1.5285399999999982">
				<time>2025-08-19T13:22:27.022Z</time>
			</trkpt>
			<trkpt lat="42.98231000000008" lon="-1.5280499999999981">
				<time>2025-08-19T13:22:28.022Z</time>
			</trkpt>
			<trkpt lat="42.982200000000084" lon="-1.5276799999999982">
				<time>2025-08-19T13:22:29.022Z</time>
			</trkpt>
			<trkpt lat="42.98221000000009" lon="-1.5274899999999982">
				<time>2025-08-19T13:22:30.022Z</time>
			</trkpt>
			<trkpt lat="42.982090000000085" lon="-1.5271999999999983">
				<time>2025-08-19T13:22:31.022Z</time>
			</trkpt>
			<trkpt lat="42.98203000000009" lon="-1.5268599999999983">
				<time>2025-08-19T13:22:32.022Z</time>
			</trkpt>
			<trkpt lat="42.98219000000009" lon="-1.5265699999999984">
				<time>2025-08-19T13:22:33.022Z</time>
			</trkpt>
			<trkpt lat="42.982340000000086" lon="-1.5260299999999984">
				<time>2025-08-19T13:22:34.022Z</time>
			</trkpt>
			<trkpt lat="42.98237000000009" lon="-1.5257299999999985">
				<time>2025-08-19T13:22:35.022Z</time>
			</trkpt>
			<trkpt lat="42.98247000000009" lon="-1.5256499999999984">
				<time>2025-08-19T13:22:36.022Z</time>
			</trkpt>
			<trkpt lat="42.98247000000009" lon="-1.5255499999999984">
				<time>2025-08-19T13:22:37.022Z</time>
			</trkpt>
			<trkpt lat="42.982410000000094" lon="-1.5253999999999983">
				<time>2025-08-19T13:22:38.022Z</time>
			</trkpt>
			<trkpt lat="42.982210000000094" lon="-1.5252599999999983">
				<time>2025-08-19T13:22:39.022Z</time>
			</trkpt>
			<trkpt lat="42.982210000000094" lon="-1.5247299999999984">
				<time>2025-08-19T13:22:40.022Z</time>
			</trkpt>
			<trkpt lat="42.982120000000094" lon="-1.5246399999999984">
				<time>2025-08-19T13:22:41.022Z</time>
			</trkpt>
			<trkpt lat="42.981970000000096" lon="-1.5245999999999984">
				<time>2025-08-19T13:22:42.022Z</time>
			</trkpt>
			<trkpt lat="42.981790000000096" lon="-1.5243799999999983">
				<time>2025-08-19T13:22:43.022Z</time>
			</trkpt>
			<trkpt lat="42.981740000000094" lon="-1.5240699999999983">
				<time>2025-08-19T13:22:44.022Z</time>
			</trkpt>
			<trkpt lat="42.9816800000001" lon="-1.5238499999999982">
				<time>2025-08-19T13:22:45.022Z</time>
			</trkpt>
			<trkpt lat="42.981450000000095" lon="-1.5238499999999982">
				<time>2025-08-19T13:22:46.022Z</time>
			</trkpt>
			<trkpt lat="42.98124000000009" lon="-1.523699999999998">
				<time>2025-08-19T13:22:47.022Z</time>
			</trkpt>
			<trkpt lat="42.98124000000009" lon="-1.523399999999998">
				<time>2025-08-19T13:22:48.022Z</time>
			</trkpt>
			<trkpt lat="42.98106000000009" lon="-1.5232799999999982">
				<time>2025-08-19T13:22:49.022Z</time>
			</trkpt>
			<trkpt lat="42.98083000000009" lon="-1.522959999999998">
				<time>2025-08-19T13:22:50.022Z</time>
			</trkpt>
			<trkpt lat="42.98091000000009" lon="-1.522789999999998">
				<time>2025-08-19T13:22:51.022Z</time>
			</trkpt>
			<trkpt lat="42.98065000000009" lon="-1.522649999999998">
				<time>2025-08-19T13:22:52.022Z</time>
			</trkpt>
			<trkpt lat="42.98039000000009" lon="-1.522469999999998">
				<time>2025-08-19T13:22:53.022Z</time>
			</trkpt>
			<trkpt lat="42.980220000000095" lon="-1.522319999999998">
				<time>2025-08-19T13:22:54.022Z</time>
			</trkpt>
			<trkpt lat="42.9800900000001" lon="-1.5221699999999978">
				<time>2025-08-19T13:22:55.022Z</time>
			</trkpt>
			<trkpt lat="42.979930000000095" lon="-1.5218599999999978">
				<time>2025-08-19T13:22:56.022Z</time>
			</trkpt>
			<trkpt lat="42.97990000000009" lon="-1.5211099999999977">
				<time>2025-08-19T13:22:57.022Z</time>
			</trkpt>
			<trkpt lat="42.980000000000096" lon="-1.5206299999999977">
				<time>2025-08-19T13:22:58.022Z</time>
			</trkpt>
			<trkpt lat="42.9801800000001" lon="-1.5202099999999976">
				<time>2025-08-19T13:22:59.022Z</time>
			</trkpt>
			<trkpt lat="42.9803900000001" lon="-1.5199099999999977">
				<time>2025-08-19T13:23:00.022Z</time>
			</trkpt>
			<trkpt lat="42.9805800000001" lon="-1.5196999999999976">
				<time>2025-08-19T13:23:01.022Z</time>
			</trkpt>
			<trkpt lat="42.9807500000001" lon="-1.5198399999999976">
				<time>2025-08-19T13:23:02.022Z</time>
			</trkpt>
			<trkpt lat="42.9809000000001" lon="-1.5200899999999977">
				<time>2025-08-19T13:23:03.022Z</time>
			</trkpt>
			<trkpt lat="42.9810100000001" lon="-1.5204099999999978">
				<time>2025-08-19T13:23:04.022Z</time>
			</trkpt>
			<trkpt lat="42.9813000000001" lon="-1.520119999999998">
				<time>2025-08-19T13:23:05.022Z</time>
			</trkpt>
			<trkpt lat="42.981450000000095" lon="-1.5199099999999979">
				<time>2025-08-19T13:23:06.022Z</time>
			</trkpt>
			<trkpt lat="42.9815500000001" lon="-1.519719999999998">
				<time>2025-08-19T13:23:07.022Z</time>
			</trkpt>
			<trkpt lat="42.9816600000001" lon="-1.519559999999998">
				<time>2025-08-19T13:23:08.022Z</time>
			</trkpt>
			<trkpt lat="42.9817100000001" lon="-1.519359999999998">
				<time>2025-08-19T13:23:09.022Z</time>
			</trkpt>
			<trkpt lat="42.9818700000001" lon="-1.519349999999998">
				<time>2025-08-19T13:23:10.022Z</time>
			</trkpt>
			<trkpt lat="42.9820500000001" lon="-1.5192999999999979">
				<time>2025-08-19T13:23:11.022Z</time>
			</trkpt>
			<trkpt lat="42.9822100000001" lon="-1.5190899999999978">
				<time>2025-08-19T13:23:12.022Z</time>
			</trkpt>
			<trkpt lat="42.9825800000001" lon="-1.518089999999998">
				<time>2025-08-19T13:23:13.022Z</time>
			</trkpt>
			<trkpt lat="42.9831900000001" lon="-1.518469999999998">
				<time>2025-08-19T13:23:14.022Z</time>
			</trkpt>
			<trkpt lat="42.9836200000001" lon="-1.518509999999998">
				<time>2025-08-19T13:23:15.022Z</time>
			</trkpt>
			<trkpt lat="42.9838000000001" lon="-1.519029999999998">
				<time>2025-08-19T13:23:16.022Z</time>
			</trkpt>
			<trkpt lat="42.9840400000001" lon="-1.5190999999999981">
				<time>2025-08-19T13:23:17.022Z</time>
			</trkpt>
			<trkpt lat="42.9843100000001" lon="-1.518919999999998">
				<time>2025-08-19T13:23:18.022Z</time>
			</trkpt>
			<trkpt lat="42.9845800000001" lon="-1.518959999999998">
				<time>2025-08-19T13:23:19.022Z</time>
			</trkpt>
			<trkpt lat="42.9855500000001" lon="-1.520179999999998">
				<time>2025-08-19T13:23:20.022Z</time>
			</trkpt>
			<trkpt lat="42.9857000000001" lon="-1.520749999999998">
				<time>2025-08-19T13:23:21.022Z</time>
			</trkpt>
			<trkpt lat="42.9858700000001" lon="-1.521519999999998">
				<time>2025-08-19T13:23:22.022Z</time>
			</trkpt>
			<trkpt lat="42.9860600000001" lon="-1.522089999999998">
				<time>2025-08-19T13:23:23.022Z</time>
			</trkpt>
			<trkpt lat="42.986160000000105" lon="-1.5222799999999979">
				<time>2025-08-19T13:23:24.022Z</time>
			</trkpt>
			<trkpt lat="42.986360000000104" lon="-1.5229799999999978">
				<time>2025-08-19T13:23:25.022Z</time>
			</trkpt>
			<trkpt lat="42.9868900000001" lon="-1.5238399999999979">
				<time>2025-08-19T13:23:26.022Z</time>
			</trkpt>
			<trkpt lat="42.9868200000001" lon="-1.5246899999999979">
				<time>2025-08-19T13:23:27.022Z</time>
			</trkpt>
			<trkpt lat="42.9869900000001" lon="-1.524759999999998">
				<time>2025-08-19T13:23:28.022Z</time>
			</trkpt>
			<trkpt lat="42.9871800000001" lon="-1.524529999999998">
				<time>2025-08-19T13:23:29.022Z</time>
			</trkpt>
			<trkpt lat="42.9873300000001" lon="-1.524119999999998">
				<time>2025-08-19T13:23:30.022Z</time>
			</trkpt>
			<trkpt lat="42.9874700000001" lon="-1.523819999999998">
				<time>2025-08-19T13:23:31.022Z</time>
			</trkpt>
			<trkpt lat="42.9875100000001" lon="-1.5229599999999979">
				<time>2025-08-19T13:23:32.022Z</time>
			</trkpt>
			<trkpt lat="42.9877200000001" lon="-1.5224099999999978">
				<time>2025-08-19T13:23:33.022Z</time>
			</trkpt>
			<trkpt lat="42.9876700000001" lon="-1.5214799999999977">
				<time>2025-08-19T13:23:34.022Z</time>
			</trkpt>
			<trkpt lat="42.9876900000001" lon="-1.5210599999999976">
				<time>2025-08-19T13:23:35.022Z</time>
			</trkpt>
			<trkpt lat="42.9876700000001" lon="-1.5208299999999977">
				<time>2025-08-19T13:23:36.022Z</time>
			</trkpt>
			<trkpt lat="42.9878700000001" lon="-1.5208899999999976">
				<time>2025-08-19T13:23:37.022Z</time>
			</trkpt>
			<trkpt lat="42.9881500000001" lon="-1.5214799999999977">
				<time>2025-08-19T13:23:38.022Z</time>
			</trkpt>
			<trkpt lat="42.9882400000001" lon="-1.5217799999999977">
				<time>2025-08-19T13:23:39.022Z</time>
			</trkpt>
			<trkpt lat="42.9883300000001" lon="-1.5219699999999976">
				<time>2025-08-19T13:23:40.022Z</time>
			</trkpt>
			<trkpt lat="42.9885800000001" lon="-1.5221699999999976">
				<time>2025-08-19T13:23:41.022Z</time>
			</trkpt>
			<trkpt lat="42.9887100000001" lon="-1.5220699999999976">
				<time>2025-08-19T13:23:42.022Z</time>
			</trkpt>
			<trkpt lat="42.9888700000001" lon="-1.5220399999999976">
				<time>2025-08-19T13:23:43.022Z</time>
			</trkpt>
			<trkpt lat="42.9892600000001" lon="-1.5221499999999977">
				<time>2025-08-19T13:23:44.022Z</time>
			</trkpt>
			<trkpt lat="42.9896000000001" lon="-1.5222699999999976">
				<time>2025-08-19T13:23:45.022Z</time>
			</trkpt>
			<trkpt lat="42.9897800000001" lon="-1.5222599999999975">
				<time>2025-08-19T13:23:46.022Z</time>
			</trkpt>
			<trkpt lat="42.989900000000105" lon="-1.5222099999999974">
				<time>2025-08-19T13:23:47.022Z</time>
			</trkpt>
			<trkpt lat="42.989940000000104" lon="-1.5221299999999973">
				<time>2025-08-19T13:23:48.022Z</time>
			</trkpt>
			<trkpt lat="42.9898200000001" lon="-1.5220699999999974">
				<time>2025-08-19T13:23:49.022Z</time>
			</trkpt>
			<trkpt lat="42.9897700000001" lon="-1.5219499999999975">
				<time>2025-08-19T13:23:50.022Z</time>
			</trkpt>
			<trkpt lat="42.9897400000001" lon="-1.5217299999999974">
				<time>2025-08-19T13:23:51.022Z</time>
			</trkpt>
			<trkpt lat="42.9897500000001" lon="-1.5214999999999974">
				<time>2025-08-19T13:23:52.022Z</time>
			</trkpt>
			<trkpt lat="42.9898200000001" lon="-1.5212499999999973">
				<time>2025-08-19T13:23:53.022Z</time>
			</trkpt>
			<trkpt lat="42.989920000000104" lon="-1.5210699999999973">
				<time>2025-08-19T13:23:54.022Z</time>
			</trkpt>
			<trkpt lat="42.990010000000105" lon="-1.5208399999999973">
				<time>2025-08-19T13:23:55.022Z</time>
			</trkpt>
			<trkpt lat="42.9901800000001" lon="-1.5205199999999972">
				<time>2025-08-19T13:23:56.022Z</time>
			</trkpt>
			<trkpt lat="42.9902300000001" lon="-1.5204599999999973">
				<time>2025-08-19T13:23:57.022Z</time>
			</trkpt>
			<trkpt lat="42.990320000000104" lon="-1.5202599999999973">
				<time>2025-08-19T13:23:58.022Z</time>
			</trkpt>
			<trkpt lat="42.9905800000001" lon="-1.5198999999999974">
				<time>2025-08-19T13:23:59.022Z</time>
			</trkpt>
			<trkpt lat="42.9910400000001" lon="-1.5193299999999974">
				<time>2025-08-19T13:24:00.022Z</time>
			</trkpt>
			<trkpt lat="42.9912700000001" lon="-1.5192899999999974">
				<time>2025-08-19T13:24:01.022Z</time>
			</trkpt>
			<trkpt lat="42.9914600000001" lon="-1.5193099999999973">
				<time>2025-08-19T13:24:02.022Z</time>
			</trkpt>
			<trkpt lat="42.9916400000001" lon="-1.5192899999999974">
				<time>2025-08-19T13:24:03.022Z</time>
			</trkpt>
			<trkpt lat="42.9917200000001" lon="-1.5192599999999974">
				<time>2025-08-19T13:24:04.022Z</time>
			</trkpt>
			<trkpt lat="42.9917800000001" lon="-1.5192599999999974">
				<time>2025-08-19T13:24:05.022Z</time>
			</trkpt>
			<trkpt lat="42.992110000000096" lon="-1.5191799999999973">
				<time>2025-08-19T13:24:06.022Z</time>
			</trkpt>
			<trkpt lat="42.9924500000001" lon="-1.5191199999999974">
				<time>2025-08-19T13:24:07.022Z</time>
			</trkpt>
			<trkpt lat="42.9929000000001" lon="-1.5189699999999973">
				<time>2025-08-19T13:24:08.022Z</time>
			</trkpt>
			<trkpt lat="42.9932800000001" lon="-1.5189299999999972">
				<time>2025-08-19T13:24:09.022Z</time>
			</trkpt>
			<trkpt lat="42.9933500000001" lon="-1.5189699999999973">
				<time>2025-08-19T13:24:10.022Z</time>
			</trkpt>
			<trkpt lat="42.9934500000001" lon="-1.5189599999999972">
				<time>2025-08-19T13:24:11.022Z</time>
			</trkpt>
			<trkpt lat="42.9934900000001" lon="-1.5189299999999972">
				<time>2025-08-19T13:24:12.022Z</time>
			</trkpt>
			<trkpt lat="42.9936000000001" lon="-1.5188999999999973">
				<time>2025-08-19T13:24:13.022Z</time>
			</trkpt>
			<trkpt lat="42.9937100000001" lon="-1.5186599999999972">
				<time>2025-08-19T13:24:14.022Z</time>
			</trkpt>
			<trkpt lat="42.9938800000001" lon="-1.5181499999999972">
				<time>2025-08-19T13:24:15.022Z</time>
			</trkpt>
			<trkpt lat="42.9941300000001" lon="-1.5177399999999972">
				<time>2025-08-19T13:24:16.022Z</time>
			</trkpt>
			<trkpt lat="42.9943500000001" lon="-1.5175599999999971">
				<time>2025-08-19T13:24:17.022Z</time>
			</trkpt>
			<trkpt lat="42.99481000000009" lon="-1.5173599999999972">
				<time>2025-08-19T13:24:18.022Z</time>
			</trkpt>
			<trkpt lat="42.995150000000095" lon="-1.517249999999997">
				<time>2025-08-19T13:24:19.022Z</time>
			</trkpt>
			<trkpt lat="42.995370000000094" lon="-1.517249999999997">
				<time>2025-08-19T13:24:20.022Z</time>
			</trkpt>
			<trkpt lat="42.99559000000009" lon="-1.5172999999999972">
				<time>2025-08-19T13:24:21.022Z</time>
			</trkpt>
			<trkpt lat="42.99579000000009" lon="-1.517419999999997">
				<time>2025-08-19T13:24:22.022Z</time>
			</trkpt>
			<trkpt lat="42.996090000000095" lon="-1.5174999999999972">
				<time>2025-08-19T13:24:23.022Z</time>
			</trkpt>
			<trkpt lat="42.9963000000001" lon="-1.5176299999999971">
				<time>2025-08-19T13:24:24.022Z</time>
			</trkpt>
			<trkpt lat="42.996470000000095" lon="-1.5178099999999972">
				<time>2025-08-19T13:24:25.022Z</time>
			</trkpt>
			<trkpt lat="42.996610000000096" lon="-1.5179899999999973">
				<time>2025-08-19T13:24:26.022Z</time>
			</trkpt>
			<trkpt lat="42.9967900000001" lon="-1.5183199999999972">
				<time>2025-08-19T13:24:27.022Z</time>
			</trkpt>
			<trkpt lat="42.996940000000095" lon="-1.5186799999999971">
				<time>2025-08-19T13:24:28.022Z</time>
			</trkpt>
			<trkpt lat="42.9970400000001" lon="-1.5188599999999972">
				<time>2025-08-19T13:24:29.022Z</time>
			</trkpt>
			<trkpt lat="42.997120000000095" lon="-1.5190499999999971">
				<time>2025-08-19T13:24:30.022Z</time>
			</trkpt>
			<trkpt lat="42.9973300000001" lon="-1.5194299999999972">
				<time>2025-08-19T13:24:31.022Z</time>
			</trkpt>
			<trkpt lat="42.997390000000095" lon="-1.5195099999999973">
				<time>2025-08-19T13:24:32.022Z</time>
			</trkpt>
			<trkpt lat="42.997500000000095" lon="-1.5195399999999972">
				<time>2025-08-19T13:24:33.022Z</time>
			</trkpt>
			<trkpt lat="42.99758000000009" lon="-1.5195199999999973">
				<time>2025-08-19T13:24:34.022Z</time>
			</trkpt>
			<trkpt lat="42.99789000000009" lon="-1.5196399999999972">
				<time>2025-08-19T13:24:35.022Z</time>
			</trkpt>
			<trkpt lat="42.99822000000009" lon="-1.5198199999999973">
				<time>2025-08-19T13:24:36.022Z</time>
			</trkpt>
			<trkpt lat="42.99836000000009" lon="-1.5199299999999973">
				<time>2025-08-19T13:24:37.022Z</time>
			</trkpt>
			<trkpt lat="42.99849000000009" lon="-1.5199199999999973">
				<time>2025-08-19T13:24:38.022Z</time>
			</trkpt>
			<trkpt lat="42.99873000000009" lon="-1.5198099999999972">
				<time>2025-08-19T13:24:39.022Z</time>
			</trkpt>
			<trkpt lat="42.998860000000086" lon="-1.5196099999999972">
				<time>2025-08-19T13:24:40.022Z</time>
			</trkpt>
			<trkpt lat="42.999010000000084" lon="-1.5192099999999973">
				<time>2025-08-19T13:24:41.022Z</time>
			</trkpt>
			<trkpt lat="42.999150000000085" lon="-1.5191099999999973">
				<time>2025-08-19T13:24:42.022Z</time>
			</trkpt>
			<trkpt lat="42.99921000000008" lon="-1.5189499999999974">
				<time>2025-08-19T13:24:43.022Z</time>
			</trkpt>
		</trkseg>
	</trk>
</gpx>
